Latest Weather Observations for Rockhampton

IDQ60801

Issued at 5:32 am EST Sunday 14 February 2016 (issued every 30 minutes, with the page automatically refreshed every 10 minutes)

About weather observations | Map of weather stations | Latest weather observations for QLD | Other Formats
Station Details ID: 039083 Name: ROCKHAMPTON AERO Lat: -23.38 Lon: 150.48 Height: 10.4 m
Data from the previous 72 hours. | See also: Recent months at Rockhampton
Date/Time
EST
Temp
°C
App
Temp
°C
Dew
Point
Rel
Hum
%
Delta-T
°C
Wind Press
QNH
hPa
Press
MSL
hPa
Rain
since 9 am
mm
Dir
 
Spd
km/h
Gust
km/h
Spd
kts
Gust
kts
14/05:30am 21.6 23.8 19.1 86 1.6 SSE 6 7 3 4 1007.2 1007.1 16.0
14/05:00am 21.5 24.0 19.1 86 1.5 W 4 7 2 4 1007.0 1006.9 16.0
14/04:30am 21.5 24.2 20.3 93 0.8 W 6 7 3 4 1006.8 1006.7 16.0
14/04:00am 21.6 25.4 20.2 92 0.9 CALM 0 0 0 0 1006.7 1006.6 16.0
14/03:30am 22.0 25.9 20.3 90 1.1 CALM 0 0 0 0 1006.8 1006.7 16.0
14/03:00am 22.1 25.6 20.4 90 1.1 WSW 2 7 1 4 1007.1 1007.0 16.0
14/02:30am 22.3 24.1 20.3 88 1.3 WSW 11 13 6 7 1006.9 1006.8 16.0
14/02:00am 22.4 24.4 20.7 90 1.1 SW 11 13 6 7 1007.3 1007.2 16.0
14/01:30am 23.0 25.9 20.7 87 1.5 SSE 6 9 3 5 1007.8 1007.7 16.0
14/01:00am 22.7 25.6 21.0 90 1.1 SE 7 9 4 5 1008.0 1007.9 16.0
14/12:30am 23.2 26.0 20.8 86 1.6 SSE 7 9 4 5 1008.4 1008.3 16.0
14/12:00am 23.2 26.1 20.6 85 1.7 SSE 6 7 3 4 1008.5 1008.4 16.0
 
Date/Time
EST
Temp
°C
App
Temp
°C
Dew
Point
Rel
Hum
%
Delta-T
°C
Wind Press
QNH
hPa
Press
MSL
hPa
Rain
since 9 am
mm
Dir
 
Spd
km/h
Gust
km/h
Spd
kts
Gust
kts
13/11:30pm 23.2 25.1 20.6 85 1.7 ESE 11 15 6 8 1008.6 1008.5 16.0
13/11:00pm 23.4 26.1 20.6 84 1.8 SSE 7 11 4 6 1008.8 1008.7 16.0
13/10:30pm 23.5 25.0 20.6 84 1.9 ESE 13 20 7 11 1008.8 1008.7 16.0
13/10:00pm 23.7 25.2 20.5 82 2.1 SE 13 19 7 10 1008.8 1008.7 16.0
13/09:30pm 23.8 24.6 20.7 83 2.0 SE 17 26 9 14 1008.6 1008.5 16.0
13/09:17pm 24.1 24.5 20.6 81 2.3 ESE 19 33 10 18 1008.5 1008.4 16.0
13/09:00pm 23.9 24.8 20.8 83 2.0 ESE 17 22 9 12 1008.3 1008.2 16.0
13/08:30pm 23.9 24.8 21.5 86 1.6 ESE 19 28 10 15 1008.2 1008.1 16.0
13/08:00pm 23.8 24.6 21.7 88 1.4 ESE 20 32 11 17 1008.0 1007.9 16.0
13/07:48pm 24.1 24.7 21.4 85 1.8 E 20 30 11 16 1007.7 1007.6 16.0
13/07:38pm 23.9 24.6 21.5 86 1.6 ESE 20 32 11 17 1008.1 1008.0 15.8
13/07:30pm 24.4 26.0 21.4 83 2.0 SE 15 22 8 12 1008.3 1008.2 15.6
13/07:00pm 25.7 28.3 21.2 76 3.0 SSE 9 13 5 7 1007.3 1007.2 15.4
13/06:30pm 26.1 29.0 21.1 74 3.3 SSE 7 9 4 5 1006.6 1006.5 15.4
13/06:00pm 25.2 27.7 21.0 77 2.8 NE 9 13 5 7 1006.1 1006.0 15.4
13/05:30pm 25.2 26.4 20.0 73 3.4 NNE 13 17 7 9 1005.7 1005.6 15.4
13/05:00pm 23.5 22.9 18.8 75 3.0 NNE 20 30 11 16 1005.6 1005.5 15.4
13/04:53pm 23.4 23.3 19.5 79 2.5 NE 19 26 10 14 1005.8 1005.7 15.4
13/04:30pm 23.2 19.1 19.1 78 2.6 ESE 39 100 21 54 1006.1 1006.0 13.0
13/04:28pm 22.4 17.8 18.9 80 2.2 SE 41 100 22 54 1006.7 1006.6 10.6
13/04:25pm 22.1 17.3 18.3 79 2.4 SSE 41 100 22 54 1006.8 1006.7 3.8
13/04:23pm 22.7 19.5 18.6 77 2.6 S 33 100 18 54 1005.7 1005.6 1.0
13/04:22pm 24.2 23.6 21.3 84 1.9 S 26 72 14 39 1005.6 1005.5 0.4
13/04:17pm 30.5 31.6 18.1 47 8.0 SSE 9 39 5 21 1004.8 1004.7 0.0
13/04:00pm 32.1 33.3 17.4 41 9.4 S 7 15 4 8 1004.5 1004.4 0.0
13/03:52pm 32.7 33.3 17.8 41 9.6 SSW 11 15 6 8 1004.7 1004.6 0.0
13/03:30pm 32.5 33.6 17.9 41 9.4 SE 9 19 5 10 1004.9 1004.8 0.0
13/03:00pm 32.3 32.8 17.5 41 9.5 SE 11 19 6 10 1005.2 1005.1 0.0
13/02:30pm 32.0 32.2 17.7 42 9.2 SSE 13 22 7 12 1005.6 1005.5 0.0
13/02:00pm 32.3 33.0 17.9 42 9.3 SSE 11 17 6 9 1005.9 1005.8 0.0
13/01:30pm 31.6 32.5 18.3 45 8.6 SSE 11 17 6 9 1006.4 1006.3 0.0
13/01:00pm 30.8 31.1 17.9 46 8.3 S 13 20 7 11 1007.0 1006.9 0.0
13/12:30pm 31.1 31.9 18.2 46 8.3 SSE 11 17 6 9 1007.4 1007.3 0.0
13/12:00pm 30.4 30.8 18.1 47 7.9 SE 13 20 7 11 1008.0 1007.9 0.0
13/11:30am 29.8 29.7 17.9 48 7.6 SE 15 24 8 13 1008.4 1008.3 0.0
13/11:00am 29.7 29.9 17.6 48 7.7 SE 13 26 7 14 1008.6 1008.5 0.0
13/10:30am 29.6 29.1 17.8 49 7.5 ESE 17 26 9 14 1008.9 1008.8 0.0
13/10:00am 28.2 27.4 17.2 51 6.9 ESE 17 24 9 13 1009.3 1009.2 0.0
13/09:30am 28.1 26.8 16.9 50 7.0 ESE 19 30 10 16 1009.4 1009.3 0.0
13/09:00am 27.3 26.7 16.7 52 6.6 SSE 15 20 8 11 1009.4 1009.3 0.0
13/08:30am 26.4 26.0 16.2 53 6.3 SE 13 20 7 11 1009.5 1009.4 0.0
13/08:00am 25.7 25.8 16.5 56 5.7 SSE 11 15 6 8 1009.4 1009.3 0.0
13/07:30am 24.8 25.4 16.7 60 5.0 SSE 9 13 5 7 1009.4 1009.3 0.0
13/07:00am 23.8 25.8 17.0 65 4.2 SSE 2 9 1 5 1009.3 1009.2 0.0
13/06:30am 22.3 24.3 16.9 71 3.3 SSW 2 9 1 5 1008.9 1008.8 0.0
13/06:00am 21.0 23.5 17.3 79 2.3 CALM 0 0 0 0 1008.7 1008.6 0.0
13/05:30am 21.7 22.7 16.8 73 3.0 S 7 9 4 5 1008.6 1008.5 0.0
13/05:00am 22.0 22.6 16.9 73 3.1 SSE 9 11 5 6 1008.2 1008.1 0.0
13/04:30am 22.4 23.0 16.7 70 3.5 SE 9 13 5 7 1007.9 1007.8 0.0
13/04:00am 22.6 23.1 16.5 68 3.7 SE 9 15 5 8 1007.9 1007.8 0.0
13/03:30am 22.9 22.6 16.5 67 3.9 ESE 13 19 7 10 1007.7 1007.6 0.0
13/03:00am 22.9 23.5 16.9 69 3.7 SE 9 13 5 7 1008.0 1007.9 0.0
13/02:30am 23.2 23.1 17.0 68 3.8 ESE 13 17 7 9 1008.0 1007.9 0.0
13/02:00am 23.3 23.9 17.7 71 3.5 ESE 11 17 6 9 1008.2 1008.1 0.0
13/01:30am 23.7 23.0 17.4 68 3.9 ESE 17 22 9 12 1008.4 1008.3 0.0
13/01:00am 24.1 24.7 17.7 67 4.0 SE 11 19 6 10 1008.9 1008.8 0.0
13/12:30am 24.9 24.1 17.2 62 4.8 SE 17 26 9 14 1009.2 1009.1 0.0
13/12:00am 25.0 25.6 18.7 68 4.0 ESE 13 20 7 11 1009.6 1009.5 0.0
 
Date/Time
EST
Temp
°C
App
Temp
°C
Dew
Point
Rel
Hum
%
Delta-T
°C
Wind Press
QNH
hPa
Press
MSL
hPa
Rain
since 9 am
mm
Dir
 
Spd
km/h
Gust
km/h
Spd
kts
Gust
kts
12/11:30pm 24.7 25.9 19.9 74 3.1 ESE 13 17 7 9 1009.9 1009.8 0.0
12/11:00pm 25.4 26.0 19.5 70 3.8 ESE 15 19 8 10 1010.0 1009.9 0.0
12/10:30pm 25.6 26.3 19.6 69 3.9 ESE 15 22 8 12 1010.1 1010.0 0.0
12/10:00pm 26.0 26.2 19.3 66 4.3 ESE 17 22 9 12 1010.2 1010.1 0.0
12/09:30pm 26.4 26.3 19.6 66 4.4 ESE 19 32 10 17 1010.2 1010.1 0.0
12/09:00pm 26.4 26.8 19.8 67 4.3 ESE 17 26 9 14 1010.1 1010.0 0.0
12/08:30pm 26.7 27.1 19.8 66 4.5 E 17 28 9 15 1009.8 1009.7 0.0
12/08:00pm 26.8 28.8 19.9 66 4.5 ESE 9 15 5 8 1009.5 1009.4 0.0
12/07:30pm 27.1 28.9 19.6 63 4.9 ENE 9 13 5 7 1009.1 1009.0 0.0
12/07:00pm 27.5 28.4 19.3 61 5.3 ENE 13 19 7 10 1008.8 1008.7 0.0
12/06:30pm 27.9 28.1 19.3 59 5.6 E 17 26 9 14 1008.5 1008.4 0.0
12/06:00pm 28.3 27.8 18.7 56 6.2 E 19 28 10 15 1008.3 1008.2 0.0
12/05:30pm 28.9 29.2 18.7 54 6.6 ENE 15 24 8 13 1008.0 1007.9 0.0
12/05:00pm 30.4 30.6 18.5 49 7.7 E 15 20 8 11 1007.6 1007.5 0.0
12/04:30pm 31.2 31.0 16.8 42 9.1 E 13 20 7 11 1007.2 1007.1 0.0
12/04:00pm 31.9 31.2 16.5 39 9.7 E 15 28 8 15 1007.2 1007.1 0.0
12/03:30pm 32.1 31.6 15.8 37 10.2 ESE 13 24 7 13 1007.3 1007.2 0.0
12/03:00pm 32.2 30.8 15.5 36 10.4 SE 17 26 9 14 1007.4 1007.3 0.0
12/02:30pm 31.7 30.4 15.8 38 9.9 ESE 17 28 9 15 1007.8 1007.7 0.0
12/02:00pm 31.6 29.9 15.7 38 9.9 ESE 19 24 10 13 1008.1 1008.0 0.0
12/01:30pm 31.1 29.2 15.2 38 9.8 SE 19 28 10 15 1008.4 1008.3 0.0
12/01:00pm 30.8 29.1 15.7 40 9.4 ESE 19 30 10 16 1008.6 1008.5 0.0
12/12:30pm 31.1 29.8 15.8 39 9.5 ESE 17 26 9 14 1009.1 1009.0 0.0
12/12:00pm 31.1 30.2 16.9 42 9.0 SE 17 24 9 13 1009.6 1009.5 0.0
12/11:30am 29.7 27.8 16.8 45 8.1 SE 22 35 12 19 1010.0 1009.9 0.0
12/11:00am 29.3 28.1 17.1 47 7.7 SE 19 28 10 15 1010.3 1010.2 0.0
12/10:30am 28.7 27.7 18.0 52 6.8 ESE 20 30 11 16 1010.5 1010.4 0.0
12/10:00am 28.7 27.7 17.9 52 6.9 SE 20 30 11 16 1010.7 1010.6 0.0
12/09:30am 27.8 25.3 17.1 52 6.7 ESE 26 35 14 19 1010.9 1010.8 0.0
12/09:00am 27.1 25.9 17.6 56 6.0 SE 20 32 11 17 1011.2 1011.1 0.0
12/08:30am 26.4 24.9 17.7 58 5.5 SE 22 35 12 19 1011.4 1011.3 0.0
12/08:00am 25.7 24.8 18.1 63 4.8 SE 20 28 11 15 1011.3 1011.2 0.0
12/07:30am 24.6 24.5 17.9 66 4.2 SE 15 20 8 11 1011.1 1011.0 0.0
12/07:00am 24.0 24.8 18.1 69 3.7 SSE 11 15 6 8 1011.0 1010.9 0.0
12/06:30am 22.9 24.0 17.9 73 3.1 SE 9 13 5 7 1010.7 1010.6 0.0
12/06:00am 22.5 23.5 17.8 75 2.9 SSE 9 13 5 7 1010.5 1010.4 0.0
12/05:30am 22.3 23.8 18.0 76 2.7 SSE 7 9 4 5 1010.1 1010.0 0.0
12/05:00am 22.5 23.5 17.8 75 2.9 SE 9 13 5 7 1009.9 1009.8 0.0
12/04:30am 22.9 23.6 17.9 73 3.1 SE 11 17 6 9 1009.7 1009.6 0.0
12/04:00am 23.2 23.6 18.1 73 3.2 SE 13 17 7 9 1009.6 1009.5 0.0
12/03:30am 23.7 23.7 18.0 70 3.6 SE 15 22 8 12 1009.5 1009.4 0.0
12/03:00am 24.1 24.1 18.2 69 3.7 SE 15 22 8 12 1009.5 1009.4 0.0
12/02:30am 24.2 24.1 18.7 71 3.5 SE 17 26 9 14 1009.5 1009.4 0.0
12/02:00am 24.7 24.1 18.4 68 4.0 ESE 19 24 10 13 1009.7 1009.6 0.0
12/01:30am 25.1 24.8 18.3 66 4.3 SE 17 30 9 16 1010.0 1009.9 0.0
12/01:00am 25.2 25.5 18.8 67 4.1 SE 15 22 8 12 1010.2 1010.1 0.0
12/12:30am 25.4 25.2 18.6 66 4.3 ESE 17 26 9 14 1010.4 1010.3 0.0
12/12:00am 25.6 26.2 18.7 65 4.4 SE 13 17 7 9 1010.6 1010.5 0.0
 
Date/Time
EST
Temp
°C
App
Temp
°C
Dew
Point
Rel
Hum
%
Delta-T
°C
Wind Press
QNH
hPa
Press
MSL
hPa
Rain
since 9 am
mm
Dir
 
Spd
km/h
Gust
km/h
Spd
kts
Gust
kts
11/11:30pm 26.0 26.2 18.5 63 4.8 SE 15 26 8 14 1010.6 1010.5 0.0
11/11:00pm 26.0 26.3 19.5 67 4.2 ESE 17 24 9 13 1010.5 1010.4 0.0
11/10:30pm 26.1 26.7 19.4 66 4.3 ESE 15 24 8 13 1010.8 1010.7 0.0
11/10:00pm 26.3 27.5 19.8 67 4.2 ESE 13 20 7 11 1010.8 1010.7 0.0
11/09:30pm 26.3 28.1 20.3 69 3.9 ESE 11 17 6 9 1010.8 1010.7 0.0
11/09:00pm 26.4 27.7 20.1 68 4.1 ESE 13 20 7 11 1010.7 1010.6 0.0
11/08:30pm 26.8 27.8 19.4 64 4.8 ESE 13 24 7 13 1010.5 1010.4 0.0
11/08:00pm 26.8 27.2 19.0 62 5.0 E 15 22 8 12 1010.1 1010.0 0.0
11/07:30pm 27.0 27.0 18.2 58 5.6 ESE 15 20 8 11 1009.8 1009.7 0.0
11/07:00pm 27.2 27.3 19.1 61 5.2 E 17 24 9 13 1009.4 1009.3 0.0
11/06:30pm 27.5 27.4 19.5 61 5.2 E 19 30 10 16 1008.9 1008.8 0.0
11/06:00pm 28.0 27.9 19.6 60 5.5 E 19 26 10 14 1008.7 1008.6 0.0
11/05:30pm 28.8 28.8 18.9 55 6.4 ENE 17 26 9 14 1008.3 1008.2 0.0
11/05:00pm 29.0 28.5 19.0 54 6.5 E 20 32 11 17 1008.0 1007.9 0.0
11/04:30pm 29.8 29.9 19.2 53 6.9 E 17 24 9 13 1007.5 1007.4 0.0
11/04:00pm 30.5 30.2 19.2 51 7.4 E 19 26 10 14 1007.4 1007.3 0.0
11/03:30pm 30.8 30.4 18.0 46 8.2 ENE 17 28 9 15 1007.3 1007.2 0.0
11/03:00pm 31.2 31.1 17.8 44 8.6 E 15 24 8 13 1007.4 1007.3 0.0
11/02:30pm 30.7 30.1 16.7 43 8.8 ESE 15 22 8 12 1007.9 1007.8 0.0
11/02:00pm 31.1 30.3 17.1 43 8.9 E 17 28 9 15 1008.1 1008.0 0.0
11/01:30pm 30.7 30.5 16.7 43 8.8 E 13 24 7 13 1008.4 1008.3 0.0
11/01:00pm 30.6 30.2 17.2 44 8.5 ESE 15 24 8 13 1008.9 1008.8 0.0
11/12:30pm 30.4 30.2 17.5 46 8.2 SE 15 26 8 14 1009.3 1009.2 0.0
11/12:00pm 30.0 29.4 17.6 47 7.9 SE 17 32 9 17 1009.6 1009.5 0.0
11/11:30am 29.4 28.8 17.6 49 7.5 SE 17 24 9 13 1010.2 1010.1 0.0
11/11:00am 29.1 28.7 18.0 51 7.1 ESE 17 26 9 14 1010.5 1010.4 0.0
11/10:30am 28.8 27.9 17.8 51 7.0 ESE 19 26 10 14 1010.8 1010.7 0.0
11/10:00am 28.0 27.0 17.9 54 6.4 ESE 20 33 11 18 1010.8 1010.7 0.0
11/09:30am 27.5 27.1 18.1 56 6.0 SE 17 30 9 16 1010.9 1010.8 0.0
11/09:00am 26.8 25.7 17.8 57 5.7 SE 20 30 11 16 1011.0 1010.9 0.0
11/08:30am 25.8 24.1 18.0 62 4.9 SE 24 32 13 17 1011.0 1010.9 0.0
11/08:00am 24.5 23.7 18.0 67 4.1 SE 19 30 10 16 1011.0 1010.9 0.0
11/07:30am 24.0 24.6 18.5 71 3.5 SE 13 19 7 10 1010.9 1010.8 0.0
11/07:00am 23.0 24.4 18.7 77 2.7 SSE 9 15 5 8 1010.7 1010.6 0.0
11/06:30am 22.5 23.5 18.7 79 2.4 SE 11 17 6 9 1010.4 1010.3 0.0
11/06:00am 21.9 23.4 18.9 83 1.9 SE 9 13 5 7 1010.1 1010.0 0.0

Other Formats:

Comma delimited format used in spreadsheet applications
http://www.bom.gov.au/fwo/IDQ60801/IDQ60801.94374.axf

JavaScript Object Notation format (JSON) in row-major order
http://www.bom.gov.au/fwo/IDQ60801/IDQ60801.94374.json